Terminal Aerodrome Forecast
Issued by NWS

Home | Current Version | Previous Version | Text Only | Print | Product List | Glossary On
Versions: 1 2 3 4 5 6 7 8 9 10 11 12 13 14 15
000
FTUS45 KTFX 081734
TAFLWT
TAF
KLWT 081734Z 0818/0918 VRB05KT P6SM OVC050
     FM090600 11006KT P6SM BKN100 PROB30 0909/0910 4SM -SN OVC025
     FM091200 09006KT P6SM OVC025 PROB30 0915/0916 2SM -SN OVC007=

USA.gov is the U.S. government's official web portal to all federal, state and local government web resources and services.